Time;durP1;ratioP1;P1;durP2;ratioP2;P2;SDS_P1;SDS_P2;PMS_P1;PMS_P2;Temp;Humidity;BMP_temperature;BMP_pressure;BME280_temperature;BME280_humidity;BME280_pressure;Samples;Min_cycle;Max_cycle;Signal;HPM_P1;HPM_P2
2023/07/03 00:02:21;;;;;;;5.53;4.23;;;22.70;56.60;23.50;100309.00;;;;5008822;28;20163;-48
2023/07/03 00:04:47;;;;;;;4.10;3.70;;;22.70;56.70;23.50;100297.00;;;;5008560;28;20234;-48
2023/07/03 00:07:14;;;;;;;5.67;4.07;;;22.70;57.30;23.40;100298.00;;;;5008475;28;20191;-48
2023/07/03 00:09:40;;;;;;;4.63;4.03;;;22.70;56.60;23.40;100301.00;;;;5008348;28;20176;-47
2023/07/03 00:12:07;;;;;;;4.27;3.70;;;22.70;57.30;23.40;100302.00;;;;5008710;28;20361;-47
2023/07/03 00:14:33;;;;;;;4.80;4.07;;;22.70;56.60;23.40;100294.00;;;;5008176;28;20191;-47
2023/07/03 00:16:58;;;;;;;4.00;3.60;;;22.70;56.60;23.40;100298.00;;;;5008175;28;20200;-49
2023/07/03 00:19:26;;;;;;;4.13;3.73;;;22.70;57.20;23.40;100301.00;;;;4990594;28;20194;-49
2023/07/03 00:21:52;;;;;;;4.80;4.07;;;22.60;56.50;23.40;100302.00;;;;5012194;28;20176;-49
2023/07/03 00:24:18;;;;;;;4.37;3.70;;;22.70;56.50;23.40;100305.00;;;;5012707;28;20242;-48
2023/07/03 00:26:44;;;;;;;5.67;4.00;;;22.60;56.30;23.40;100313.00;;;;5008469;28;20366;-48
2023/07/03 00:29:09;;;;;;;4.77;3.77;;;22.60;56.40;23.30;100299.00;;;;5011922;28;20187;-49
2023/07/03 00:31:35;;;;;;;4.73;3.77;;;22.60;56.40;23.30;100305.00;;;;5020458;28;20175;-48
2023/07/03 00:34:01;;;;;;;4.43;3.80;;;22.60;56.40;23.30;100295.00;;;;5013497;28;20266;-47
2023/07/03 00:36:27;;;;;;;5.43;3.80;;;22.60;56.40;23.30;100304.00;;;;4995001;28;20188;-48
2023/07/03 00:38:58;;;;;;;4.30;3.73;;;22.60;56.30;23.30;100303.00;;;;5012429;28;20179;-47
2023/07/03 00:41:24;;;;;;;6.10;3.87;;;22.60;56.40;23.30;100309.00;;;;5012863;28;20199;-48
2023/07/03 00:43:50;;;;;;;5.43;3.80;;;22.60;56.40;23.30;100311.00;;;;5017731;28;20202;-50
2023/07/03 00:46:16;;;;;;;4.10;3.70;;;22.50;56.20;23.30;100299.00;;;;5006164;28;20195;-48
2023/07/03 00:48:42;;;;;;;4.60;3.47;;;22.60;56.40;23.30;100301.00;;;;4994881;28;20638;-48
2023/07/03 00:51:09;;;;;;;5.30;3.93;;;22.50;56.30;23.30;100288.00;;;;4994630;28;20226;-47
2023/07/03 00:53:34;;;;;;;3.83;3.47;;;22.50;56.40;23.20;100298.00;;;;4994144;28;20203;-49
2023/07/03 00:56:01;;;;;;;4.77;3.83;;;22.50;56.20;23.20;100310.00;;;;4993972;28;20717;-48
2023/07/03 00:58:26;;;;;;;5.33;4.00;;;22.50;56.20;23.20;100301.00;;;;4994557;28;20230;-47
2023/07/03 01:01:01;;;;;;;4.20;3.50;;;22.50;56.20;23.20;100299.00;;;;4994432;28;20647;-48
2023/07/03 01:03:40;;;;;;;4.03;3.60;;;22.50;56.20;23.20;100275.00;;;;4962853;28;20661;-47
2023/07/03 01:06:08;;;;;;;4.37;3.60;;;22.50;56.20;23.20;100290.00;;;;4995030;28;20199;-48
2023/07/03 01:08:34;;;;;;;4.50;3.40;;;22.40;56.20;23.20;100295.00;;;;4978404;28;20183;-48
2023/07/03 01:11:00;;;;;;;4.77;3.43;;;22.40;56.20;23.20;100293.00;;;;4994015;28;20179;-48
2023/07/03 01:13:26;;;;;;;5.03;3.60;;;22.40;56.30;23.10;100303.00;;;;4961595;28;20740;-47
2023/07/03 01:15:52;;;;;;;4.30;3.60;;;22.40;56.20;23.10;100280.00;;;;4961466;28;20196;-47
2023/07/03 01:18:18;;;;;;;4.60;3.70;;;22.40;56.10;23.10;100293.00;;;;4977605;28;20706;-47
2023/07/03 01:20:53;;;;;;;4.03;3.47;;;22.40;56.20;23.10;100296.00;;;;4993737;28;20267;-49
2023/07/03 01:23:20;;;;;;;5.00;3.67;;;22.40;56.20;23.10;100286.00;;;;4994017;28;20645;-48
2023/07/03 01:25:46;;;;;;;5.50;3.70;;;22.40;56.30;23.10;100285.00;;;;4993135;28;20282;-49
2023/07/03 01:28:13;;;;;;;3.53;3.23;;;22.30;56.20;23.10;100283.00;;;;4976891;28;20270;-47
2023/07/03 01:30:40;;;;;;;3.83;3.37;;;22.40;56.20;23.10;100295.00;;;;4977222;28;20172;-49
2023/07/03 01:33:05;;;;;;;3.50;3.20;;;22.40;56.20;23.00;100296.00;;;;4960895;28;20630;-48
2023/07/03 01:35:31;;;;;;;5.60;3.80;;;22.30;56.20;23.00;100294.00;;;;5010676;28;20192;-50
2023/07/03 01:37:58;;;;;;;4.33;3.50;;;22.30;56.20;23.00;100296.00;;;;4981516;28;20183;-51
2023/07/03 01:40:24;;;;;;;3.90;3.30;;;22.30;56.00;23.00;100299.00;;;;4967294;28;20186;-48
2023/07/03 01:42:49;;;;;;;4.50;3.60;;;22.30;56.70;23.00;100288.00;;;;4990310;28;20267;-47
2023/07/03 01:45:15;;;;;;;4.50;3.30;;;22.30;56.00;23.00;100291.00;;;;4990112;28;20203;-47
2023/07/03 01:47:41;;;;;;;3.80;3.30;;;22.30;56.00;23.00;100257.00;;;;5024809;28;20172;-57
2023/07/03 01:50:12;;;;;;;3.83;3.33;;;22.30;56.00;23.00;100288.00;;;;5024747;28;20183;-50
2023/07/03 01:52:39;;;;;;;4.70;3.53;;;22.30;55.90;23.00;100281.00;;;;4996806;28;20638;-47
2023/07/03 01:55:49;;;;;;;5.20;3.93;;;22.20;56.00;23.00;100284.00;;;;4993836;28;20547;-48
2023/07/03 01:58:29;;;;;;;4.83;3.60;;;22.20;55.80;22.90;100271.00;;;;4992737;28;20578;-48
2023/07/03 02:01:01;;;;;;;3.87;3.23;;;22.20;55.70;22.90;100269.00;;;;4979270;28;20713;-55
2023/07/03 02:03:37;;;;;;;4.57;3.33;;;22.20;55.70;22.90;100270.00;;;;4977429;28;20216;-48
2023/07/03 02:06:23;;;;;;;4.87;3.60;;;22.20;56.40;22.90;100272.00;;;;4992567;28;20802;-47
2023/07/03 02:08:50;;;;;;;4.17;3.33;;;22.20;55.80;22.90;100273.00;;;;4992959;28;20620;-46
2023/07/03 02:11:17;;;;;;;4.97;3.53;;;22.20;55.70;22.80;100271.00;;;;4960556;28;20203;-47
2023/07/03 02:13:43;;;;;;;4.50;3.30;;;22.20;55.70;22.80;100275.00;;;;4992741;28;20674;-47
2023/07/03 02:16:09;;;;;;;4.20;3.30;;;22.10;55.70;22.80;100273.00;;;;5009987;28;20218;-48
2023/07/03 02:18:35;;;;;;;4.27;3.50;;;22.20;55.70;22.80;100278.00;;;;5009969;28;20613;-48
2023/07/03 02:21:00;;;;;;;5.10;3.50;;;22.20;55.70;22.80;100279.00;;;;5010152;28;20191;-48
2023/07/03 02:23:27;;;;;;;4.10;3.33;;;22.10;55.70;22.80;100274.00;;;;5009893;28;20185;-47
2023/07/03 02:25:52;;;;;;;4.60;3.30;;;22.10;55.70;22.80;100277.00;;;;5010162;28;20207;-50
2023/07/03 02:28:18;;;;;;;4.43;3.40;;;22.10;55.70;22.80;100216.00;;;;5011346;28;20260;-49
2023/07/03 02:30:44;;;;;;;6.30;3.63;;;22.10;55.70;22.80;100281.00;;;;5031058;28;20375;-47
2023/07/03 02:33:11;;;;;;;4.23;3.33;;;22.10;55.70;22.80;100270.00;;;;5012398;28;20223;-48
2023/07/03 02:35:37;;;;;;;4.10;3.20;;;22.10;55.60;22.80;100259.00;;;;5010201;28;20203;-48
2023/07/03 02:38:03;;;;;;;4.30;3.40;;;22.10;55.70;22.70;100275.00;;;;5010063;28;20654;-48
2023/07/03 02:40:29;;;;;;;4.83;3.27;;;22.10;55.70;22.70;100271.00;;;;5010946;28;20226;-48
2023/07/03 02:42:55;;;;;;;5.70;3.57;;;22.10;55.70;22.70;100276.00;;;;5012986;28;20202;-49
2023/07/03 02:45:20;;;;;;;4.37;3.17;;;22.00;55.50;22.70;100263.00;;;;5029952;28;20207;-48
2023/07/03 02:47:46;;;;;;;4.67;3.43;;;22.00;55.60;22.70;100276.00;;;;5009898;28;20179;-48
2023/07/03 02:50:12;;;;;;;6.27;3.60;;;22.00;55.60;22.70;100275.00;;;;5009688;28;20419;-47
2023/07/03 02:52:37;;;;;;;6.30;3.13;;;22.00;55.60;22.70;100276.00;;;;5008527;28;20183;-48
2023/07/03 02:55:03;;;;;;;5.17;3.50;;;22.00;55.70;22.70;100267.00;;;;5009224;28;20580;-47
2023/07/03 02:57:29;;;;;;;5.13;3.40;;;22.00;55.70;22.70;100266.00;;;;5009396;28;20195;-47
2023/07/03 02:59:55;;;;;;;4.80;3.47;;;22.00;55.80;22.70;100268.00;;;;5009253;28;20502;-47
2023/07/03 03:02:20;;;;;;;4.90;3.13;;;22.00;56.00;22.60;100263.00;;;;5010701;28;20172;-48
2023/07/03 03:04:47;;;;;;;6.67;3.27;;;21.90;55.80;22.60;100258.00;;;;5010719;28;20211;-47
2023/07/03 03:07:13;;;;;;;4.87;3.13;;;21.90;55.80;22.60;100255.00;;;;5011426;28;20273;-47
2023/07/03 03:09:40;;;;;;;5.63;3.20;;;21.90;55.80;22.60;100257.00;;;;5010501;28;20227;-48
2023/07/03 03:12:07;;;;;;;3.73;3.00;;;21.90;55.60;22.60;100263.00;;;;5010187;28;20180;-47
2023/07/03 03:14:33;;;;;;;4.17;3.17;;;21.90;55.70;22.60;100255.00;;;;5009909;28;20226;-47
2023/07/03 03:16:59;;;;;;;4.43;3.30;;;21.90;55.70;22.60;100250.00;;;;5010199;28;20191;-47
2023/07/03 03:19:25;;;;;;;4.23;3.00;;;21.90;55.80;22.60;100256.00;;;;5010212;28;20207;-48
2023/07/03 03:21:50;;;;;;;4.63;3.33;;;21.90;55.80;22.60;100255.00;;;;4992652;28;20207;-47
2023/07/03 03:24:17;;;;;;;3.63;3.00;;;21.90;55.70;22.60;100240.00;;;;5009659;28;20278;-47
2023/07/03 03:26:43;;;;;;;4.27;3.03;;;21.90;55.70;22.60;100251.00;;;;5009802;28;20198;-47
2023/07/03 03:29:08;;;;;;;4.53;3.20;;;21.90;55.80;22.50;100251.00;;;;5009787;28;20187;-48
2023/07/03 03:31:34;;;;;;;4.37;2.90;;;21.80;55.70;22.50;100249.00;;;;5010008;28;20179;-48
2023/07/03 03:34:00;;;;;;;4.53;3.40;;;21.80;55.70;22.50;100253.00;;;;5009964;28;20691;-47
2023/07/03 03:36:26;;;;;;;5.27;3.43;;;21.80;55.80;22.50;100247.00;;;;5010003;28;20670;-47
2023/07/03 03:38:51;;;;;;;4.20;3.13;;;21.80;55.80;22.50;100249.00;;;;5010186;28;20171;-47
2023/07/03 03:41:17;;;;;;;4.10;2.90;;;21.80;55.80;22.50;100250.00;;;;5010247;28;20179;-47
2023/07/03 03:43:46;;;;;;;3.30;2.87;;;21.80;55.80;22.50;100252.00;;;;5010420;28;20186;-49
2023/07/03 03:46:12;;;;;;;4.90;3.47;;;21.80;55.80;22.50;100234.00;;;;5014325;28;20195;-49
2023/07/03 03:48:38;;;;;;;5.67;3.20;;;21.80;55.80;22.50;100250.00;;;;5012026;28;20179;-47
2023/07/03 03:51:03;;;;;;;4.73;3.13;;;21.80;55.80;22.40;100241.00;;;;5009981;28;20186;-47
2023/07/03 03:53:29;;;;;;;4.13;2.87;;;21.80;55.80;22.40;100260.00;;;;5009466;28;20235;-47
2023/07/03 03:55:55;;;;;;;4.40;3.30;;;21.70;55.80;22.40;100240.00;;;;5009504;28;20202;-47
2023/07/03 03:58:21;;;;;;;5.60;3.30;;;21.70;55.80;22.40;100249.00;;;;5009550;28;20184;-48
2023/07/03 04:00:46;;;;;;;4.47;3.10;;;21.70;55.70;22.40;100247.00;;;;5009181;28;20758;-47
2023/07/03 04:03:12;;;;;;;5.03;3.20;;;21.70;55.80;22.20;100249.00;;;;5015903;28;20168;-57
2023/07/03 04:05:39;;;;;;;4.30;3.20;;;21.70;55.80;22.40;100252.00;;;;5021218;28;20282;-50
2023/07/03 04:08:05;;;;;;;4.80;3.07;;;21.70;56.00;22.30;100255.00;;;;4964676;28;20642;-48
2023/07/03 04:10:31;;;;;;;4.50;3.10;;;21.70;55.90;22.30;100249.00;;;;5013930;28;20207;-48
2023/07/03 04:12:57;;;;;;;3.47;2.87;;;21.70;55.90;22.30;100263.00;;;;5013585;28;20286;-47
2023/07/03 04:15:23;;;;;;;4.93;3.43;;;21.70;55.90;22.30;100254.00;;;;5013081;28;20693;-48
2023/07/03 04:17:49;;;;;;;3.97;3.03;;;21.60;55.90;22.30;100254.00;;;;5013590;28;20267;-47
2023/07/03 04:20:14;;;;;;;3.97;3.17;;;21.70;56.00;22.30;100257.00;;;;5013615;28;20179;-46
2023/07/03 04:22:41;;;;;;;3.50;3.20;;;21.70;56.00;22.30;100258.00;;;;5013418;28;20175;-48
2023/07/03 04:25:08;;;;;;;4.83;3.13;;;21.60;55.90;22.30;100255.00;;;;5013246;28;20175;-47
2023/07/03 04:27:33;;;;;;;4.23;3.33;;;21.60;55.90;22.20;100258.00;;;;5019082;28;20176;-47
2023/07/03 04:29:59;;;;;;;4.03;2.87;;;21.60;55.90;22.20;100260.00;;;;5033691;28;20187;-48
2023/07/03 04:32:25;;;;;;;3.67;2.70;;;21.60;55.90;22.20;100266.00;;;;5013953;28;20167;-47
2023/07/03 04:34:51;;;;;;;3.60;2.80;;;21.60;55.80;22.20;100265.00;;;;5013542;28;20758;-49
2023/07/03 04:37:17;;;;;;;3.07;2.77;;;21.60;55.90;22.20;100260.00;;;;5013472;28;20199;-49
2023/07/03 04:39:43;;;;;;;4.23;3.20;;;21.60;55.90;22.20;100266.00;;;;5013713;28;20182;-49
2023/07/03 04:42:13;;;;;;;5.23;3.20;;;21.60;55.90;22.20;100266.00;;;;5021787;28;20167;-52
2023/07/03 04:44:41;;;;;;;5.13;3.20;;;21.60;55.90;22.20;100267.00;;;;5027459;28;20658;-53
2023/07/03 04:47:08;;;;;;;4.43;2.90;;;21.50;55.80;22.20;100262.00;;;;5013160;28;20206;-47
2023/07/03 04:49:34;;;;;;;4.13;3.00;;;21.50;55.80;22.20;100261.00;;;;5013385;28;20658;-48
2023/07/03 04:51:59;;;;;;;4.50;2.90;;;21.60;55.90;22.20;100257.00;;;;4995844;28;20261;-47
2023/07/03 04:54:28;;;;;;;4.13;2.80;;;21.50;55.80;22.20;100267.00;;;;5013213;28;20204;-47
2023/07/03 04:56:56;;;;;;;3.90;3.17;;;21.60;55.90;22.10;100242.00;;;;5012823;28;20192;-47
2023/07/03 04:59:22;;;;;;;4.27;3.10;;;21.50;55.80;22.10;100269.00;;;;4995607;28;20174;-47
2023/07/03 05:01:47;;;;;;;3.50;2.87;;;21.50;55.90;22.10;100268.00;;;;5012604;28;20176;-47
2023/07/03 05:04:13;;;;;;;3.90;3.10;;;21.50;55.80;22.10;100267.00;;;;5012691;28;20172;-49
2023/07/03 05:06:39;;;;;;;4.83;3.43;;;21.50;55.80;22.10;100263.00;;;;5012617;28;20572;-49
2023/07/03 05:09:05;;;;;;;3.90;3.17;;;21.40;55.70;22.10;100275.00;;;;5012672;28;20184;-48
2023/07/03 05:11:32;;;;;;;4.57;3.17;;;21.50;55.80;22.10;100278.00;;;;4995264;28;20184;-47
2023/07/03 05:13:58;;;;;;;3.60;2.90;;;21.40;55.80;22.10;100279.00;;;;4994340;28;20207;-47
2023/07/03 05:16:23;;;;;;;4.33;3.00;;;21.50;55.80;22.10;100283.00;;;;5011731;28;20402;-47
2023/07/03 05:18:49;;;;;;;4.20;3.00;;;21.40;55.70;22.10;100276.00;;;;5012431;28;20179;-48
2023/07/03 05:21:15;;;;;;;3.93;3.10;;;21.40;55.80;22.10;100280.00;;;;5012564;28;20178;-46
2023/07/03 05:23:40;;;;;;;3.90;3.17;;;21.40;55.80;22.10;100277.00;;;;5012377;28;20680;-48
2023/07/03 05:26:06;;;;;;;4.23;3.10;;;21.40;55.80;22.10;100267.00;;;;5012380;28;20203;-49
2023/07/03 05:28:32;;;;;;;3.97;2.90;;;21.40;55.90;22.10;100283.00;;;;4994692;28;20231;-48
2023/07/03 05:30:58;;;;;;;4.90;3.00;;;21.40;55.90;21.80;100289.00;;;;4994779;28;20207;-47
2023/07/03 05:33:24;;;;;;;3.60;2.97;;;21.40;55.90;22.10;100293.00;;;;5012043;28;20179;-47
2023/07/03 05:35:50;;;;;;;4.30;3.10;;;21.40;55.90;22.10;100280.00;;;;4994556;28;20187;-47
2023/07/03 05:38:15;;;;;;;3.73;2.80;;;21.40;55.90;22.10;100288.00;;;;5012344;28;20191;-47
2023/07/03 05:40:41;;;;;;;3.90;2.97;;;21.40;55.90;22.10;100287.00;;;;5012170;28;20246;-47
2023/07/03 05:43:07;;;;;;;4.07;2.90;;;21.40;55.90;22.10;100297.00;;;;5012015;28;20171;-47
2023/07/03 05:45:33;;;;;;;5.43;3.30;;;21.40;55.90;22.10;100299.00;;;;5011697;28;20355;-48
2023/07/03 05:47:59;;;;;;;4.57;3.23;;;21.40;56.00;22.10;100291.00;;;;5011786;28;20175;-48
2023/07/03 05:50:25;;;;;;;3.50;3.03;;;21.40;56.00;22.10;100308.00;;;;5012112;28;20179;-47
2023/07/03 05:52:50;;;;;;;5.80;3.00;;;21.40;56.00;22.10;100299.00;;;;5011809;28;20182;-48
2023/07/03 05:55:16;;;;;;;4.13;3.10;;;21.40;56.00;22.00;100300.00;;;;5011549;28;20212;-48
2023/07/03 05:57:42;;;;;;;4.00;2.80;;;21.40;56.00;22.00;100309.00;;;;5011672;28;20172;-48
2023/07/03 06:00:13;;;;;;;3.97;2.93;;;21.40;56.00;22.10;100305.00;;;;5012151;28;20164;-47
2023/07/03 06:02:46;;;;;;;4.37;2.77;;;21.30;55.90;22.00;100314.00;;;;5011951;28;20263;-47
2023/07/03 06:05:12;;;;;;;5.17;3.17;;;21.30;56.00;22.00;100304.00;;;;4995316;28;20183;-48
2023/07/03 06:07:38;;;;;;;3.77;2.90;;;21.30;56.00;22.00;100306.00;;;;5015592;28;20226;-48
2023/07/03 06:10:05;;;;;;;4.57;3.17;;;21.30;56.10;22.00;100315.00;;;;5012239;28;20528;-48
2023/07/03 06:12:31;;;;;;;3.50;3.03;;;21.30;56.10;22.00;100309.00;;;;5011343;28;20179;-48
2023/07/03 06:15:00;;;;;;;3.13;2.60;;;21.30;56.00;22.00;100310.00;;;;5011137;28;20306;-48
2023/07/03 06:17:27;;;;;;;3.43;2.90;;;21.30;56.10;22.00;100306.00;;;;5011343;28;20705;-51
2023/07/03 06:19:53;;;;;;;4.57;3.30;;;21.30;56.00;22.00;100315.00;;;;5011384;28;20172;-52
2023/07/03 06:22:19;;;;;;;4.10;3.07;;;21.30;56.10;22.00;100314.00;;;;5011964;28;20176;-48
2023/07/03 06:24:45;;;;;;;4.77;2.90;;;21.30;56.10;22.00;100308.00;;;;5011186;28;20230;-48
2023/07/03 06:27:11;;;;;;;3.87;3.03;;;21.30;56.10;22.00;100321.00;;;;5030762;28;20191;-48
2023/07/03 06:29:37;;;;;;;4.27;2.93;;;21.30;56.10;22.00;100312.00;;;;5006139;28;20220;-48
2023/07/03 06:32:03;;;;;;;5.07;3.20;;;21.30;56.10;21.80;100325.00;;;;5011978;28;20198;-47
2023/07/03 06:34:29;;;;;;;3.57;2.70;;;21.30;56.20;22.00;100313.00;;;;5012120;28;20237;-47
2023/07/03 06:36:54;;;;;;;3.87;3.03;;;21.30;56.20;22.00;100326.00;;;;5013493;28;20194;-48
2023/07/03 06:39:20;;;;;;;3.90;3.00;;;21.30;56.20;22.00;100332.00;;;;5012664;28;20176;-47
2023/07/03 06:41:46;;;;;;;4.07;3.10;;;21.30;56.20;22.00;100335.00;;;;5033768;28;20179;-47
2023/07/03 06:44:14;;;;;;;4.13;3.10;;;21.30;56.20;22.00;100325.00;;;;5013814;28;20194;-47
2023/07/03 06:46:40;;;;;;;3.73;2.90;;;21.30;56.20;22.00;100339.00;;;;5011048;28;20576;-47
2023/07/03 06:49:05;;;;;;;3.40;2.70;;;21.20;56.20;22.00;100339.00;;;;5010735;28;20180;-47
2023/07/03 06:51:31;;;;;;;3.83;3.00;;;21.30;56.20;22.00;100339.00;;;;5010826;28;20823;-47
2023/07/03 06:53:57;;;;;;;4.63;3.20;;;21.30;56.30;22.00;100334.00;;;;5010682;28;20290;-48
2023/07/03 06:56:23;;;;;;;3.70;2.90;;;21.30;56.30;21.90;100323.00;;;;5010682;28;20214;-46
2023/07/03 06:58:49;;;;;;;3.57;2.83;;;21.20;56.20;22.00;100326.00;;;;5010443;28;20630;-47
2023/07/03 07:01:17;;;;;;;4.07;2.90;;;21.20;56.20;22.00;100338.00;;;;4992894;28;20660;-48
2023/07/03 07:03:43;;;;;;;3.80;2.83;;;21.20;56.20;22.00;100332.00;;;;5010470;28;20187;-47
2023/07/03 07:06:18;;;;;;;4.60;3.20;;;21.20;56.20;22.00;100332.00;;;;5010529;28;20419;-48
2023/07/03 07:08:44;;;;;;;3.60;2.80;;;21.20;56.30;22.00;100332.00;;;;5010882;28;20175;-47
2023/07/03 07:11:15;;;;;;;3.43;2.97;;;21.30;56.30;22.00;100335.00;;;;5010748;28;20207;-48
2023/07/03 07:13:45;;;;;;;4.73;2.90;;;21.30;56.30;21.80;100332.00;;;;5010376;28;20590;-47
2023/07/03 07:16:12;;;;;;;3.60;2.90;;;21.30;56.30;22.00;100320.00;;;;5010247;28;20187;-47
2023/07/03 07:18:39;;;;;;;4.93;3.13;;;21.20;56.30;22.00;100336.00;;;;5010545;28;20669;-47
2023/07/03 07:21:04;;;;;;;3.57;2.80;;;21.20;56.20;22.00;100322.00;;;;4995948;28;20175;-47
2023/07/03 07:23:30;;;;;;;4.67;3.13;;;21.20;56.20;22.00;100332.00;;;;5015651;28;20252;-47
2023/07/03 07:25:56;;;;;;;3.90;3.20;;;21.20;56.30;22.00;100321.00;;;;5011018;28;20906;-46
2023/07/03 07:28:22;;;;;;;3.73;3.00;;;21.20;56.30;22.00;100324.00;;;;5010158;28;20242;-47
2023/07/03 07:30:48;;;;;;;4.23;3.30;;;21.20;56.90;22.00;100320.00;;;;5010308;28;20195;-48
2023/07/03 07:33:14;;;;;;;4.60;3.00;;;21.20;56.30;22.00;100330.00;;;;4992941;28;20182;-48
2023/07/03 07:35:41;;;;;;;3.27;2.80;;;21.20;56.30;22.00;100326.00;;;;5010026;28;20220;-48
2023/07/03 07:38:07;;;;;;;5.03;3.40;;;21.30;56.30;22.00;100331.00;;;;5009369;28;20182;-48
2023/07/03 07:40:33;;;;;;;3.83;3.20;;;21.30;56.40;22.00;100331.00;;;;5010074;28;20547;-48
2023/07/03 07:42:58;;;;;;;4.80;3.50;;;21.20;56.30;22.00;100330.00;;;;5010012;28;20175;-48
2023/07/03 07:45:24;;;;;;;4.50;3.07;;;21.30;56.40;22.00;100336.00;;;;5009698;28;20650;-47
2023/07/03 07:47:50;;;;;;;4.97;3.30;;;21.20;56.20;22.00;100321.00;;;;5009521;28;20176;-48
2023/07/03 07:50:16;;;;;;;5.30;3.13;;;21.30;56.40;22.00;100320.00;;;;4992025;28;20187;-47
2023/07/03 07:52:41;;;;;;;4.73;3.10;;;21.30;56.40;22.00;100318.00;;;;5009773;28;20195;-56
2023/07/03 07:55:09;;;;;;;3.97;3.20;;;21.30;56.50;22.00;100326.00;;;;5009394;28;20204;-48
2023/07/03 07:57:34;;;;;;;3.43;2.97;;;21.30;56.60;22.00;100324.00;;;;5009937;28;20202;-48
2023/07/03 08:00:00;;;;;;;5.27;3.30;;;21.30;56.60;22.00;100310.00;;;;5010133;28;20168;-49
2023/07/03 08:02:26;;;;;;;4.47;3.20;;;21.30;56.60;22.00;100313.00;;;;5009792;28;20172;-47
2023/07/03 08:04:52;;;;;;;3.97;3.10;;;21.30;56.50;22.00;100318.00;;;;5009675;28;20172;-48
2023/07/03 08:07:17;;;;;;;3.87;3.13;;;21.30;56.60;22.00;100319.00;;;;5009630;28;20276;-46
2023/07/03 08:09:43;;;;;;;4.63;3.37;;;21.30;56.60;22.00;100321.00;;;;5009766;28;20195;-47
2023/07/03 08:12:09;;;;;;;4.17;3.30;;;21.30;56.50;22.00;100333.00;;;;5009610;28;20170;-48
2023/07/03 08:14:35;;;;;;;4.90;3.40;;;21.30;56.60;22.00;100321.00;;;;5009472;28;20797;-47
2023/07/03 08:17:01;;;;;;;4.73;3.40;;;21.30;56.60;22.00;100317.00;;;;5009997;28;20196;-47
2023/07/03 08:19:27;;;;;;;3.90;3.10;;;21.30;56.70;22.00;100318.00;;;;5010300;28;20188;-48
2023/07/03 08:21:55;;;;;;;5.67;3.73;;;21.30;56.60;22.00;100317.00;;;;5010154;28;20170;-47
2023/07/03 08:24:21;;;;;;;5.03;3.43;;;21.30;56.60;22.00;100330.00;;;;5013106;28;20572;-52
2023/07/03 08:26:49;;;;;;;4.10;3.17;;;21.30;56.60;22.00;100322.00;;;;5033183;28;20196;-52
2023/07/03 08:29:15;;;;;;;4.07;3.23;;;21.30;56.60;22.00;100324.00;;;;5019539;28;20221;-48
2023/07/03 08:31:41;;;;;;;5.23;3.30;;;21.30;56.60;22.00;100334.00;;;;5013454;28;20279;-47
2023/07/03 08:34:09;;;;;;;4.67;3.10;;;21.30;56.60;22.00;100330.00;;;;4993401;28;20299;-47
2023/07/03 08:36:35;;;;;;;4.30;3.37;;;21.30;56.60;22.00;100336.00;;;;5010729;28;20621;-47
2023/07/03 08:39:02;;;;;;;4.80;3.40;;;21.30;56.50;22.00;100342.00;;;;5015443;28;20156;-48
2023/07/03 08:41:27;;;;;;;5.53;3.30;;;21.30;56.60;22.00;100336.00;;;;5026904;28;20180;-47
2023/07/03 08:43:55;;;;;;;4.93;3.23;;;21.30;56.60;22.00;100337.00;;;;4976920;28;20178;-48
2023/07/03 08:46:26;;;;;;;5.40;3.30;;;21.30;56.60;22.10;100339.00;;;;4960018;28;20644;-48
2023/07/03 08:48:55;;;;;;;6.37;3.17;;;21.30;56.60;22.10;100336.00;;;;4992670;28;20180;-47
2023/07/03 08:51:24;;;;;;;3.83;3.40;;;21.30;56.60;22.10;100336.00;;;;4979521;28;20205;-48
2023/07/03 08:53:53;;;;;;;4.10;3.27;;;21.30;56.60;22.10;100332.00;;;;4995488;28;20227;-47
2023/07/03 08:56:25;;;;;;;5.10;3.27;;;21.30;56.50;22.10;100347.00;;;;4995474;28;20329;-47
2023/07/03 08:58:52;;;;;;;5.67;3.30;;;21.30;56.50;22.10;100350.00;;;;4995495;28;20819;-48
2023/07/03 09:01:42;;;;;;;5.43;3.27;;;21.30;56.50;22.10;100340.00;;;;5012909;28;20180;-48
2023/07/03 09:04:54;;;;;;;4.83;3.40;;;21.30;56.40;22.10;100356.00;;;;4995302;28;20191;-49
2023/07/03 09:07:37;;;;;;;3.90;3.10;;;21.30;56.40;22.10;100352.00;;;;5012782;28;20266;-47
2023/07/03 09:10:19;;;;;;;5.23;3.30;;;21.30;56.40;22.10;100358.00;;;;4996925;28;20183;-47
2023/07/03 09:13:06;;;;;;;4.73;3.47;;;21.30;56.40;22.10;100366.00;;;;5013112;28;20195;-47
2023/07/03 09:15:40;;;;;;;4.13;3.17;;;21.40;56.40;22.10;100357.00;;;;4979745;28;20625;-48
2023/07/03 09:18:16;;;;;;;4.20;3.07;;;21.40;56.40;22.10;100359.00;;;;4995398;28;20182;-48
2023/07/03 09:20:41;;;;;;;4.40;2.90;;;21.30;56.30;22.10;100350.00;;;;4964308;28;20265;-48
2023/07/03 09:23:26;;;;;;;3.50;2.80;;;21.30;56.30;22.10;100351.00;;;;4995350;28;20311;-47
2023/07/03 09:26:10;;;;;;;4.90;3.37;;;21.30;56.30;21.90;100357.00;;;;4980260;28;20192;-47
2023/07/03 09:28:37;;;;;;;4.33;3.30;;;21.40;56.30;22.10;100358.00;;;;5012709;28;20269;-48
2023/07/03 09:31:03;;;;;;;3.40;2.80;;;21.30;56.30;22.10;100370.00;;;;4962861;28;20179;-47
2023/07/03 09:33:30;;;;;;;4.27;3.27;;;21.40;56.30;22.20;100377.00;;;;5012295;28;20787;-48
2023/07/03 09:35:55;;;;;;;3.97;2.90;;;21.40;56.30;22.20;100361.00;;;;4994178;28;20191;-47
2023/07/03 09:38:23;;;;;;;4.50;3.30;;;21.40;56.30;22.20;100380.00;;;;5012138;28;20178;-48
2023/07/03 09:40:52;;;;;;;4.87;3.17;;;21.40;56.30;22.20;100379.00;;;;5013123;28;20203;-49
2023/07/03 09:43:30;;;;;;;5.17;3.30;;;21.40;56.30;22.20;100371.00;;;;5012524;28;20179;-48
2023/07/03 09:46:10;;;;;;;4.40;2.97;;;21.40;56.30;22.20;100385.00;;;;4996088;28;20203;-48
2023/07/03 09:48:37;;;;;;;3.90;3.03;;;21.40;56.30;22.20;100381.00;;;;4994416;28;20194;-48
2023/07/03 09:51:26;;;;;;;4.37;3.03;;;21.40;56.20;22.20;100393.00;;;;4978525;28;20187;-48
2023/07/03 09:53:53;;;;;;;5.27;3.40;;;21.40;56.20;22.20;100377.00;;;;4990591;28;20583;-48
2023/07/03 09:56:23;;;;;;;4.60;2.97;;;21.40;56.20;22.20;100389.00;;;;5011745;28;20207;-48
2023/07/03 09:58:51;;;;;;;3.97;3.10;;;21.40;56.20;22.20;100387.00;;;;5011918;28;20653;-49
2023/07/03 10:01:27;;;;;;;3.47;3.00;;;21.40;56.10;22.20;100392.00;;;;5011702;28;20219;-48
2023/07/03 10:04:07;;;;;;;4.00;2.90;;;21.40;56.20;22.20;100388.00;;;;4994609;28;20177;-48
2023/07/03 10:06:33;;;;;;;3.30;2.70;;;21.40;56.20;22.20;100398.00;;;;5012021;28;20198;-47
2023/07/03 10:09:05;;;;;;;3.50;2.80;;;21.40;56.20;22.20;100399.00;;;;5012311;28;20287;-48
2023/07/03 10:12:03;;;;;;;4.00;3.27;;;21.40;56.10;22.30;100401.00;;;;5012000;28;20182;-47
2023/07/03 10:14:42;;;;;;;3.90;2.83;;;21.40;56.20;22.30;100396.00;;;;4993802;28;20217;-48
2023/07/03 10:17:12;;;;;;;4.13;2.90;;;21.40;56.20;22.20;100402.00;;;;4995462;28;20227;-48
2023/07/03 10:19:47;;;;;;;4.00;3.10;;;21.40;56.20;22.30;100397.00;;;;4994789;28;20195;-48
2023/07/03 10:22:13;;;;;;;4.03;3.00;;;21.40;56.10;22.30;100398.00;;;;5011401;28;20257;-48
2023/07/03 10:24:38;;;;;;;3.90;2.90;;;21.50;56.20;22.30;100397.00;;;;4996394;28;20172;-48
2023/07/03 10:27:04;;;;;;;3.73;3.10;;;21.40;56.20;22.30;100403.00;;;;4984277;28;20199;-48
2023/07/03 10:29:37;;;;;;;3.93;3.10;;;21.40;56.30;22.30;100410.00;;;;4994533;28;20195;-48
2023/07/03 10:32:13;;;;;;;3.80;2.90;;;21.40;56.30;22.30;100412.00;;;;5012107;28;20167;-47
2023/07/03 10:35:22;;;;;;;3.47;2.87;;;21.40;56.30;22.30;100417.00;;;;4963298;28;20626;-46
2023/07/03 10:38:13;;;;;;;3.60;2.90;;;21.40;56.30;22.30;100414.00;;;;5010404;28;20201;-48
2023/07/03 10:41:13;;;;;;;4.17;3.10;;;21.40;56.30;22.30;100422.00;;;;4994972;28;20167;-47
2023/07/03 10:44:10;;;;;;;3.43;2.90;;;21.50;56.30;22.30;100404.00;;;;4994498;28;20260;-49
2023/07/03 10:46:53;;;;;;;4.40;2.97;;;21.50;56.40;22.30;100413.00;;;;4965117;28;20205;-54
2023/07/03 10:49:46;;;;;;;3.60;2.60;;;21.40;56.30;22.30;100408.00;;;;4972525;28;20720;-48
2023/07/03 10:52:29;;;;;;;3.57;2.70;;;21.50;56.40;22.30;100404.00;;;;5009379;28;20192;-48
2023/07/03 10:55:24;;;;;;;3.40;2.80;;;21.50;56.40;22.30;100402.00;;;;5010443;28;20207;-48